createdAt,value
2023-04-13T00:02:11.293Z,70.20
2023-04-13T00:04:36.888Z,70.05
2023-04-13T00:07:04.536Z,70.19
2023-04-13T00:09:31.668Z,69.32
2023-04-13T00:11:58.693Z,69.67
2023-04-13T00:13:08.605Z,69.60
2023-04-13T00:15:37.636Z,69.40
2023-04-13T00:16:47.816Z,69.76
2023-04-13T00:17:57.532Z,70.32
2023-04-13T00:19:07.458Z,70.83
2023-04-13T00:21:34.260Z,71.44
2023-04-13T00:22:47.030Z,71.02
2023-04-13T00:25:14.779Z,70.59
2023-04-13T00:27:43.232Z,70.25
2023-04-13T00:30:15.806Z,69.76
2023-04-13T00:31:24.988Z,70.10
2023-04-13T00:32:36.218Z,70.38
2023-04-13T00:35:01.350Z,70.10
2023-04-13T00:36:12.981Z,70.16
2023-04-13T00:37:23.019Z,70.04
2023-04-13T00:39:46.961Z,69.80
2023-04-13T00:40:56.202Z,70.05
2023-04-13T00:43:26.329Z,69.71
2023-04-13T00:44:39.570Z,69.55
2023-04-13T00:45:49.457Z,69.39
2023-04-13T00:48:13.884Z,69.54
2023-04-13T00:49:23.508Z,68.80
2023-04-13T00:50:34.042Z,69.36
2023-04-13T00:51:48.285Z,69.90
2023-04-13T00:54:14.603Z,70.99
2023-04-13T00:56:45.468Z,71.83
2023-04-13T00:57:56.330Z,72.14
2023-04-13T01:00:24.942Z,72.36
2023-04-13T01:02:56.519Z,72.13
2023-04-13T01:05:22.456Z,71.86
2023-04-13T01:08:09.672Z,70.57
2023-04-13T01:12:33.200Z,70.57
2023-04-13T01:15:12.339Z,69.97
2023-04-13T01:17:44.409Z,70.14
2023-04-13T01:20:13.595Z,70.34
2023-04-13T01:22:57.511Z,70.92
2023-04-13T01:24:23.157Z,70.75
2023-04-13T01:27:19.107Z,70.22
2023-04-13T01:29:48.776Z,70.31
2023-04-13T01:31:01.430Z,70.27
2023-04-13T01:32:12.806Z,69.12
2023-04-13T01:33:25.493Z,68.75
2023-04-13T01:34:36.316Z,69.31
2023-04-13T01:35:50.729Z,69.26
2023-04-13T01:37:03.398Z,69.84
2023-04-13T01:39:29.453Z,70.76
2023-04-13T01:41:57.311Z,71.37
2023-04-13T01:44:25.766Z,71.96
2023-04-13T01:46:57.812Z,71.35
2023-04-13T01:50:12.220Z,70.09
2023-04-13T01:52:58.403Z,69.81
2023-04-13T01:55:38.783Z,69.77
2023-04-13T01:56:49.480Z,68.23
2023-04-13T01:59:18.725Z,69.06
2023-04-13T02:02:17.658Z,70.19
2023-04-13T02:03:27.834Z,70.63
2023-04-13T02:04:36.467Z,71.36
2023-04-13T02:07:02.219Z,72.22
2023-04-13T02:08:15.406Z,72.10
2023-04-13T02:10:45.731Z,71.66
2023-04-13T02:11:55.591Z,71.40
2023-04-13T02:13:04.451Z,71.53
2023-04-13T02:14:15.148Z,71.39
2023-04-13T02:16:40.941Z,70.89
2023-04-13T02:17:49.934Z,70.66
2023-04-13T02:20:17.369Z,70.20
2023-04-13T02:21:26.125Z,70.59
2023-04-13T02:23:56.203Z,69.51
2023-04-13T02:26:28.065Z,68.91
2023-04-13T02:27:39.438Z,69.09
2023-04-13T02:28:51.266Z,68.94
2023-04-13T02:30:01.154Z,69.27
2023-04-13T02:32:27.149Z,69.96
2023-04-13T02:33:39.184Z,70.49
2023-04-13T02:36:03.951Z,71.06
2023-04-13T02:38:31.813Z,71.38
2023-04-13T02:41:00.117Z,71.79
2023-04-13T02:42:10.494Z,71.77
2023-04-13T02:44:38.176Z,71.22
2023-04-13T02:45:47.912Z,71.24
2023-04-13T02:46:58.246Z,70.81
2023-04-13T02:49:26.016Z,70.26
2023-04-13T02:50:38.093Z,70.47
2023-04-13T02:53:06.032Z,69.82
2023-04-13T02:54:15.492Z,69.76
2023-04-13T02:55:26.634Z,70.03
2023-04-13T02:57:56.550Z,69.66
2023-04-13T02:59:07.911Z,69.99
2023-04-13T03:01:33.711Z,69.62
2023-04-13T03:04:00.644Z,69.30
2023-04-13T03:05:10.450Z,69.51
2023-04-13T03:08:50.826Z,70.48
2023-04-13T03:11:22.974Z,71.03
2023-04-13T03:12:34.962Z,71.39
2023-04-13T03:13:44.276Z,71.47
2023-04-13T03:14:53.994Z,71.37
2023-04-13T03:17:21.298Z,70.99
2023-04-13T03:19:48.740Z,70.06
2023-04-13T03:22:21.005Z,69.85
2023-04-13T03:23:31.450Z,70.02
2023-04-13T03:25:56.236Z,70.08
2023-04-13T03:28:21.537Z,69.38
2023-04-13T03:29:30.663Z,69.50
2023-04-13T03:31:56.269Z,68.99
2023-04-13T03:33:05.476Z,69.08
2023-04-13T03:35:33.055Z,70.05
2023-04-13T03:36:43.579Z,69.57
2023-04-13T03:39:08.604Z,69.57
2023-04-13T03:40:21.075Z,69.82
2023-04-13T03:41:32.682Z,70.02
2023-04-13T03:43:58.206Z,70.48
2023-04-13T03:45:10.028Z,70.89
2023-04-13T03:47:36.187Z,71.16
2023-04-13T03:48:46.800Z,71.32
2023-04-13T03:51:13.474Z,71.42
2023-04-13T03:52:41.156Z,70.89
2023-04-13T03:53:51.717Z,70.46
2023-04-13T03:56:18.841Z,70.42
2023-04-13T03:58:45.384Z,70.41
2023-04-13T03:59:57.103Z,70.19
2023-04-13T04:02:26.731Z,69.78
2023-04-13T04:03:38.631Z,69.86
2023-04-13T04:06:07.296Z,69.27
2023-04-13T04:08:36.723Z,69.29
2023-04-13T04:11:04.812Z,70.16
2023-04-13T04:12:16.054Z,70.66
2023-04-13T04:14:41.799Z,71.22
2023-04-13T04:17:11.610Z,70.68
2023-04-13T04:18:21.979Z,70.89
2023-04-13T04:20:47.424Z,69.70
2023-04-13T04:23:14.864Z,70.08
2023-04-13T04:25:43.002Z,69.89
2023-04-13T04:26:53.676Z,70.70
2023-04-13T04:29:25.062Z,70.25
2023-04-13T04:31:53.217Z,70.28
2023-04-13T04:33:04.864Z,70.38
2023-04-13T04:34:16.860Z,70.39
2023-04-13T04:35:30.070Z,70.78
2023-04-13T04:37:58.628Z,71.41
2023-04-13T04:40:25.250Z,71.40
2023-04-13T04:42:52.312Z,71.58
2023-04-13T04:45:29.824Z,71.70
2023-04-13T04:47:59.066Z,71.79
2023-04-13T04:50:26.660Z,72.13
2023-04-13T04:51:41.555Z,72.05
2023-04-13T04:54:08.547Z,71.99
2023-04-13T04:56:33.219Z,71.37
2023-04-13T04:58:58.896Z,71.32
2023-04-13T05:01:34.435Z,70.72
2023-04-13T05:02:51.907Z,70.97
2023-04-13T05:05:17.543Z,71.53
2023-04-13T05:07:42.371Z,70.97
2023-04-13T05:10:08.687Z,71.01
2023-04-13T05:12:36.768Z,69.29
2023-04-13T05:13:45.568Z,69.56
2023-04-13T05:16:18.435Z,68.27
2023-04-13T05:18:47.016Z,68.82
2023-04-13T05:20:24.149Z,69.02
2023-04-13T05:21:34.754Z,69.57
2023-04-13T05:24:00.014Z,69.12
2023-04-13T05:26:27.089Z,70.05
2023-04-13T05:28:52.815Z,70.43
2023-04-13T05:30:04.103Z,69.63
2023-04-13T05:33:41.129Z,69.58
2023-04-13T05:34:51.299Z,69.00
2023-04-13T05:36:03.535Z,69.08
2023-04-13T05:37:15.351Z,68.47
2023-04-13T05:39:42.079Z,68.66
2023-04-13T05:42:08.175Z,69.76
2023-04-13T05:44:35.854Z,68.51
2023-04-13T05:47:01.784Z,68.73
2023-04-13T05:49:28.997Z,69.53
2023-04-13T05:50:40.634Z,69.79
2023-04-13T05:53:09.246Z,69.70
2023-04-13T05:54:20.587Z,69.37
2023-04-13T05:55:32.728Z,68.76
2023-04-13T05:58:03.944Z,68.87
2023-04-13T06:00:32.883Z,68.96
2023-04-13T06:03:03.113Z,68.64
2023-04-13T06:04:14.078Z,68.90
2023-04-13T06:06:39.523Z,68.81
2023-04-13T06:07:48.551Z,69.03
2023-04-13T06:10:16.234Z,68.20
2023-04-13T06:12:42.200Z,67.83
2023-04-13T06:13:50.831Z,68.13
2023-04-13T06:16:19.066Z,68.30
2023-04-13T06:18:42.975Z,67.97
2023-04-13T06:19:52.493Z,67.86
2023-04-13T06:22:16.300Z,67.18
2023-04-13T06:24:39.987Z,67.48
2023-04-13T06:25:51.168Z,67.59
2023-04-13T06:27:04.017Z,67.66
2023-04-13T06:28:12.827Z,67.15
2023-04-13T06:30:38.508Z,67.12
2023-04-13T06:33:05.945Z,67.95
2023-04-13T06:34:16.167Z,68.15
2023-04-13T06:36:40.132Z,67.79
2023-04-13T06:39:03.808Z,67.70
2023-04-13T06:41:50.160Z,66.82
2023-04-13T06:44:21.752Z,67.25
2023-04-13T06:45:35.963Z,67.23
2023-04-13T06:48:02.617Z,66.93
2023-04-13T06:49:14.305Z,67.44
2023-04-13T06:51:40.048Z,66.45
2023-04-13T06:54:07.202Z,67.00
2023-04-13T06:56:33.915Z,66.90
2023-04-13T06:59:02.328Z,67.15
2023-04-13T07:03:16.958Z,66.81
2023-04-13T07:04:29.122Z,65.77
2023-04-13T07:07:13.901Z,66.99
2023-04-13T07:08:25.450Z,66.78
2023-04-13T07:09:34.501Z,67.30
2023-04-13T07:12:04.305Z,65.90
2023-04-13T07:14:37.104Z,66.02
2023-04-13T07:17:02.596Z,67.21
2023-04-13T07:18:13.286Z,67.15
2023-04-13T07:19:24.431Z,66.77
2023-04-13T07:21:50.104Z,66.26
2023-04-13T07:24:13.900Z,65.86
2023-04-13T07:26:41.034Z,65.80
2023-04-13T07:27:50.461Z,65.18
2023-04-13T07:30:16.818Z,64.60
2023-04-13T07:31:27.869Z,64.57
2023-04-13T07:33:54.752Z,64.36
2023-04-13T07:36:22.918Z,64.86
2023-04-13T07:38:47.523Z,62.98
2023-04-13T07:41:15.496Z,64.16
2023-04-13T07:43:40.609Z,63.55
2023-04-13T07:46:12.054Z,64.92
2023-04-13T07:48:38.228Z,64.20
2023-04-13T07:51:03.897Z,64.47
2023-04-13T07:53:29.552Z,64.18
2023-04-13T07:54:38.857Z,64.46
2023-04-13T07:55:49.332Z,64.21
2023-04-13T07:58:14.188Z,63.44
2023-04-13T08:00:38.681Z,63.71
2023-04-13T08:03:24.574Z,63.43
2023-04-13T08:05:49.914Z,62.82
2023-04-13T08:08:20.265Z,62.56
2023-04-13T08:10:47.654Z,62.73
2023-04-13T08:13:16.003Z,63.17
2023-04-13T08:15:39.971Z,62.31
2023-04-13T08:18:05.786Z,62.00
2023-04-13T08:20:29.922Z,62.10
2023-04-13T08:22:58.803Z,61.70
2023-04-13T08:24:07.859Z,61.83
2023-04-13T08:26:32.148Z,62.01
2023-04-13T08:28:58.125Z,62.30
2023-04-13T08:31:25.930Z,62.58
2023-04-13T08:33:52.726Z,62.62
2023-04-13T08:36:18.735Z,62.03
2023-04-13T08:37:29.711Z,61.97
2023-04-13T08:39:57.878Z,61.98
2023-04-13T08:42:27.036Z,62.99
2023-04-13T08:43:36.503Z,62.88
2023-04-13T08:44:46.013Z,63.34
2023-04-13T08:47:11.999Z,63.50
2023-04-13T08:49:41.964Z,62.70
2023-04-13T08:50:58.910Z,62.83
2023-04-13T08:52:11.413Z,62.78
2023-04-13T08:53:22.916Z,62.58
2023-04-13T08:55:52.037Z,61.27
2023-04-13T08:58:23.926Z,61.74
2023-04-13T09:02:08.790Z,62.33
2023-04-13T09:04:44.724Z,61.85
2023-04-13T09:07:21.390Z,62.09
2023-04-13T09:09:52.154Z,61.77
2023-04-13T09:11:02.487Z,62.27
2023-04-13T09:12:11.478Z,62.46
2023-04-13T09:14:37.898Z,62.32
2023-04-13T09:17:07.430Z,61.41
2023-04-13T09:18:18.822Z,61.65
2023-04-13T09:19:33.363Z,62.09
2023-04-13T09:20:56.156Z,61.89
2023-04-13T09:23:28.791Z,62.20
2023-04-13T09:26:09.051Z,62.66
2023-04-13T09:28:49.579Z,62.13
2023-04-13T09:31:16.248Z,62.65
2023-04-13T09:33:48.907Z,62.01
2023-04-13T09:36:22.052Z,62.22
2023-04-13T09:38:54.442Z,61.71
2023-04-13T09:43:09.261Z,61.98
2023-04-13T09:44:20.052Z,62.15
2023-04-13T09:47:01.487Z,62.48
2023-04-13T09:49:43.424Z,62.60
2023-04-13T09:52:23.919Z,63.27
2023-04-13T09:55:02.720Z,62.67
2023-04-13T09:56:12.496Z,62.53
2023-04-13T09:58:47.759Z,61.99
2023-04-13T10:01:16.372Z,62.30
2023-04-13T10:03:42.282Z,61.39
2023-04-13T10:04:52.786Z,61.65
2023-04-13T10:07:22.312Z,61.64
2023-04-13T10:09:47.205Z,61.58
2023-04-13T10:11:00.289Z,61.70
2023-04-13T10:14:48.309Z,62.05
2023-04-13T10:17:39.408Z,61.57
2023-04-13T10:20:19.025Z,62.69
2023-04-13T10:21:35.366Z,62.95
2023-04-13T10:22:45.945Z,62.91
2023-04-13T10:25:25.292Z,62.74
2023-04-13T10:27:57.984Z,62.61
2023-04-13T10:29:09.448Z,62.89
2023-04-13T10:31:39.662Z,62.95
2023-04-13T10:34:11.128Z,63.77
2023-04-13T10:36:42.158Z,65.08
2023-04-13T10:39:17.974Z,65.05
2023-04-13T10:41:43.722Z,64.79
2023-04-13T10:42:53.388Z,64.18
2023-04-13T10:45:27.393Z,64.66
2023-04-13T10:47:53.499Z,65.21
2023-04-13T10:50:24.016Z,65.35
2023-04-13T10:53:06.295Z,65.50
2023-04-13T10:55:35.945Z,64.69
2023-04-13T10:58:16.682Z,64.22
2023-04-13T11:01:00.486Z,64.08
2023-04-13T11:03:29.056Z,64.34
2023-04-13T11:05:58.684Z,65.44
2023-04-13T11:08:27.371Z,65.35
2023-04-13T11:11:15.296Z,66.01
2023-04-13T11:13:46.749Z,66.91
2023-04-13T11:16:12.633Z,66.60
2023-04-13T11:18:36.254Z,66.77
2023-04-13T11:21:18.789Z,66.67
2023-04-13T11:23:53.509Z,66.36
2023-04-13T11:26:38.477Z,67.08
2023-04-13T11:29:11.387Z,66.18
2023-04-13T11:31:40.310Z,66.07
2023-04-13T11:34:16.573Z,65.92
2023-04-13T11:36:44.936Z,64.70
2023-04-13T11:39:15.229Z,65.56
2023-04-13T11:41:44.619Z,65.39
2023-04-13T11:42:55.829Z,65.43
2023-04-13T11:45:23.191Z,66.03
2023-04-13T11:46:33.634Z,65.82
2023-04-13T11:47:44.826Z,65.90
2023-04-13T11:50:13.575Z,65.91
2023-04-13T11:52:42.403Z,65.97
2023-04-13T11:55:21.634Z,65.45
2023-04-13T11:57:37.336Z,65.66
2023-04-13T12:00:11.447Z,65.23
2023-04-13T12:03:00.427Z,64.60
2023-04-13T12:05:26.504Z,65.57
2023-04-13T12:06:40.606Z,65.35
2023-04-13T12:09:11.049Z,65.88
2023-04-13T12:11:46.628Z,66.30
2023-04-13T12:14:49.357Z,66.52
2023-04-13T12:19:30.402Z,66.47
2023-04-13T12:22:00.366Z,66.24
2023-04-13T12:24:40.546Z,66.61
2023-04-13T12:27:19.978Z,66.67
2023-04-13T12:29:46.232Z,66.62
2023-04-13T12:32:24.477Z,66.05
2023-04-13T12:34:50.177Z,66.25
2023-04-13T12:37:14.213Z,65.75
2023-04-13T12:38:25.119Z,65.98
2023-04-13T12:42:12.635Z,65.26
2023-04-13T12:44:39.449Z,65.39
2023-04-13T12:47:06.710Z,64.96
2023-04-13T12:49:31.340Z,65.23
2023-04-13T12:51:55.354Z,65.51
2023-04-13T12:54:19.012Z,64.97
2023-04-13T12:56:42.579Z,65.19
2023-04-13T12:59:07.881Z,64.77
2023-04-13T13:01:36.422Z,65.11
2023-04-13T13:02:45.962Z,64.87
2023-04-13T13:05:11.269Z,64.36
2023-04-13T13:07:56.998Z,64.86
2023-04-13T13:10:29.785Z,65.60
2023-04-13T13:12:50.829Z,65.23
2023-04-13T13:15:17.125Z,65.20
2023-04-13T13:17:43.551Z,64.90
2023-04-13T13:20:11.754Z,64.26
2023-04-13T13:22:36.506Z,64.58
2023-04-13T13:25:07.568Z,64.73
2023-04-13T13:30:06.493Z,64.84
2023-04-13T13:32:30.966Z,64.62
2023-04-13T13:34:57.931Z,64.53
2023-04-13T13:37:23.655Z,65.15
2023-04-13T13:38:35.072Z,65.17
2023-04-13T13:40:59.055Z,65.47
2023-04-13T13:43:31.410Z,65.25
2023-04-13T13:45:57.063Z,65.09
2023-04-13T13:48:25.204Z,64.89
2023-04-13T13:50:51.550Z,64.99
2023-04-13T13:53:16.003Z,65.69
2023-04-13T13:54:25.454Z,66.10
2023-04-13T13:55:34.888Z,66.45
2023-04-13T13:57:59.464Z,66.00
2023-04-13T14:00:25.313Z,65.85
2023-04-13T14:02:50.501Z,66.51
2023-04-13T14:05:17.646Z,66.42
2023-04-13T14:07:44.646Z,66.38
2023-04-13T14:08:56.515Z,66.18
2023-04-13T14:11:23.654Z,67.25
2023-04-13T14:13:49.362Z,67.34
2023-04-13T14:16:12.958Z,67.08
2023-04-13T14:17:23.541Z,67.00
2023-04-13T14:19:47.845Z,66.69
2023-04-13T14:22:17.051Z,66.62
2023-04-13T14:24:40.749Z,67.12
2023-04-13T14:27:05.213Z,66.96
2023-04-13T14:29:29.265Z,67.34
2023-04-13T14:31:56.669Z,67.00
2023-04-13T14:34:22.218Z,67.11
2023-04-13T14:36:49.334Z,67.25
2023-04-13T14:37:57.314Z,67.15
2023-04-13T14:40:23.566Z,67.98
2023-04-13T14:42:50.476Z,68.16
2023-04-13T14:45:14.900Z,68.20
2023-04-13T14:47:43.763Z,68.20
2023-04-13T14:50:09.332Z,67.99
2023-04-13T14:52:34.346Z,68.04
2023-04-13T14:55:02.042Z,68.05
2023-04-13T14:57:28.649Z,68.19
2023-04-13T14:58:39.811Z,68.60
2023-04-13T15:01:08.589Z,69.55
2023-04-13T15:03:33.990Z,69.99
2023-04-13T15:06:03.469Z,69.58
2023-04-13T15:08:26.737Z,69.74
2023-04-13T15:10:53.131Z,68.97
2023-04-13T15:13:19.303Z,69.20
2023-04-13T15:14:29.911Z,68.93
2023-04-13T15:18:06.754Z,69.48
2023-04-13T15:20:50.603Z,68.75
2023-04-13T15:23:19.351Z,68.36
2023-04-13T15:24:28.075Z,68.61
2023-04-13T15:26:53.010Z,68.93
2023-04-13T15:28:02.836Z,69.10
2023-04-13T15:30:30.375Z,69.04
2023-04-13T15:32:56.668Z,69.05
2023-04-13T15:35:26.931Z,69.17
2023-04-13T15:37:54.842Z,69.09
2023-04-13T15:40:27.874Z,70.41
2023-04-13T15:42:52.540Z,70.41
2023-04-13T15:45:18.691Z,70.43
2023-04-13T15:47:43.628Z,69.66
2023-04-13T15:48:54.437Z,69.34
2023-04-13T15:51:22.156Z,68.90
2023-04-13T15:54:07.803Z,68.92
2023-04-13T15:56:32.704Z,68.87
2023-04-13T15:59:16.986Z,69.25
2023-04-13T16:00:27.413Z,69.52
2023-04-13T16:03:03.578Z,70.04
2023-04-13T16:05:28.827Z,70.59
2023-04-13T16:07:55.505Z,70.19
2023-04-13T16:10:19.691Z,69.60
2023-04-13T16:12:45.069Z,68.79
2023-04-13T16:15:13.401Z,69.66
2023-04-13T16:17:40.995Z,69.94
2023-04-13T16:20:13.353Z,70.30
2023-04-13T16:21:23.714Z,70.24
2023-04-13T16:22:34.941Z,70.85
2023-04-13T16:24:58.873Z,71.48
2023-04-13T16:27:22.670Z,70.74
2023-04-13T16:29:46.600Z,70.25
2023-04-13T16:32:12.457Z,69.73
2023-04-13T16:34:36.914Z,68.15
2023-04-13T16:35:46.874Z,68.32
2023-04-13T16:36:57.700Z,69.21
2023-04-13T16:39:21.967Z,70.16
2023-04-13T16:41:48.065Z,71.57
2023-04-13T16:44:32.292Z,73.17
2023-04-13T16:45:41.918Z,72.70
2023-04-13T16:48:28.696Z,72.79
2023-04-13T16:49:37.750Z,72.65
2023-04-13T16:52:03.444Z,71.92
2023-04-13T16:54:47.282Z,70.86
2023-04-13T16:57:13.936Z,70.74
2023-04-13T16:59:40.186Z,70.17
2023-04-13T17:02:05.051Z,70.38
2023-04-13T17:04:28.934Z,69.81
2023-04-13T17:07:01.959Z,69.70
2023-04-13T17:09:28.982Z,70.26
2023-04-13T17:11:53.741Z,70.39
2023-04-13T17:13:02.710Z,70.79
2023-04-13T17:15:28.331Z,71.20
2023-04-13T17:18:01.187Z,71.09
2023-04-13T17:20:26.018Z,71.37
2023-04-13T17:21:35.766Z,71.87
2023-04-13T17:22:46.381Z,71.90
2023-04-13T17:25:10.760Z,72.80
2023-04-13T17:27:37.197Z,72.70
2023-04-13T17:30:02.478Z,72.84
2023-04-13T17:32:27.595Z,72.47
2023-04-13T17:34:52.954Z,72.25
2023-04-13T17:37:18.391Z,72.70
2023-04-13T17:38:27.040Z,72.59
2023-04-13T17:40:51.997Z,72.79
2023-04-13T17:42:01.147Z,72.58
2023-04-13T17:43:10.281Z,72.96
2023-04-13T17:44:21.107Z,73.13
2023-04-13T17:46:45.650Z,73.86
2023-04-13T17:49:11.307Z,73.33
2023-04-13T17:51:36.309Z,73.30
2023-04-13T17:52:46.027Z,72.96
2023-04-13T17:55:10.570Z,73.78
2023-04-13T17:56:20.777Z,73.67
2023-04-13T17:58:45.562Z,74.33
2023-04-13T18:01:11.840Z,73.23
2023-04-13T18:03:36.604Z,72.43
2023-04-13T18:06:01.190Z,71.75
2023-04-13T18:08:19.536Z,71.05
2023-04-13T18:10:44.255Z,71.36
2023-04-13T18:11:53.389Z,70.50
2023-04-13T18:14:16.990Z,70.64
2023-04-13T18:16:40.751Z,70.00
2023-04-13T18:19:05.364Z,70.13
2023-04-13T18:20:21.444Z,70.70
2023-04-13T18:22:47.960Z,70.70
2023-04-13T18:23:59.034Z,71.11
2023-04-13T18:26:24.640Z,70.58
2023-04-13T18:27:33.721Z,70.56
2023-04-13T18:28:43.601Z,69.87
2023-04-13T18:32:22.442Z,68.96
2023-04-13T18:33:32.361Z,69.57
2023-04-13T18:35:58.177Z,68.99
2023-04-13T18:38:23.924Z,69.33
2023-04-13T18:40:51.067Z,69.68
2023-04-13T18:43:15.758Z,71.12
2023-04-13T18:45:43.155Z,70.51
2023-04-13T18:48:09.197Z,70.89
2023-04-13T18:50:33.265Z,69.86
2023-04-13T18:53:00.228Z,70.24
2023-04-13T18:54:10.881Z,69.39
2023-04-13T18:56:34.654Z,69.81
2023-04-13T18:58:59.662Z,70.20
2023-04-13T19:01:26.525Z,70.52
2023-04-13T19:03:53.169Z,71.74
2023-04-13T19:06:18.030Z,73.68
2023-04-13T19:07:28.804Z,73.36
2023-04-13T19:08:37.479Z,73.10
2023-04-13T19:11:01.405Z,73.02
2023-04-13T19:13:25.097Z,73.34
2023-04-13T19:15:48.884Z,72.69
2023-04-13T19:18:14.138Z,72.63
2023-04-13T19:20:39.925Z,72.56
2023-04-13T19:23:10.116Z,72.43
2023-04-13T19:24:19.748Z,72.23
2023-04-13T19:26:45.467Z,72.84
2023-04-13T19:29:13.435Z,73.43
2023-04-13T19:31:39.188Z,73.58
2023-04-13T19:34:06.926Z,73.93
2023-04-13T19:36:32.304Z,73.72
2023-04-13T19:38:56.981Z,72.97
2023-04-13T19:41:26.946Z,73.42
2023-04-13T19:43:52.289Z,73.76
2023-04-13T19:46:16.033Z,74.32
2023-04-13T19:48:41.747Z,74.23
2023-04-13T19:51:07.063Z,73.88
2023-04-13T19:53:31.842Z,74.43
2023-04-13T19:54:40.752Z,73.75
2023-04-13T19:57:06.911Z,73.67
2023-04-13T19:59:31.246Z,74.43
2023-04-13T20:01:58.401Z,74.80
2023-04-13T20:04:24.713Z,73.50
2023-04-13T20:07:10.523Z,74.57
2023-04-13T20:09:34.970Z,74.55
2023-04-13T20:12:00.371Z,73.73
2023-04-13T20:13:10.226Z,73.40
2023-04-13T20:15:35.463Z,73.93
2023-04-13T20:17:59.668Z,73.33
2023-04-13T20:19:12.444Z,73.62
2023-04-13T20:21:42.053Z,74.04
2023-04-13T20:22:51.886Z,74.05
2023-04-13T20:25:16.729Z,74.09
2023-04-13T20:26:28.092Z,74.34
2023-04-13T20:30:15.880Z,73.59
2023-04-13T20:32:41.519Z,74.04
2023-04-13T20:35:08.672Z,74.66
2023-04-13T20:37:36.271Z,74.75
2023-04-13T20:40:02.439Z,74.95
2023-04-13T20:42:32.640Z,74.69
2023-04-13T20:44:58.081Z,74.45
2023-04-13T20:47:27.814Z,75.31
2023-04-13T20:51:15.272Z,74.00
2023-04-13T20:53:46.255Z,74.09
2023-04-13T20:54:56.796Z,73.71
2023-04-13T20:57:22.838Z,74.71
2023-04-13T20:59:51.390Z,74.12
2023-04-13T21:02:17.511Z,73.62
2023-04-13T21:04:45.364Z,73.56
2023-04-13T21:07:13.951Z,73.02
2023-04-13T21:08:28.077Z,73.28
2023-04-13T21:10:54.032Z,72.93
2023-04-13T21:13:21.253Z,72.27
2023-04-13T21:15:47.833Z,72.05
2023-04-13T21:18:12.718Z,71.70
2023-04-13T21:20:41.983Z,72.76
2023-04-13T21:23:11.975Z,72.41
2023-04-13T21:25:37.547Z,72.42
2023-04-13T21:26:47.528Z,72.05
2023-04-13T21:27:58.269Z,71.37
2023-04-13T21:29:08.185Z,71.33
2023-04-13T21:31:32.756Z,70.96
2023-04-13T21:34:00.350Z,70.49
2023-04-13T21:38:53.978Z,68.95
2023-04-13T21:41:21.424Z,69.52
2023-04-13T21:42:31.405Z,70.12
2023-04-13T21:44:58.712Z,69.75
2023-04-13T21:47:22.860Z,68.91
2023-04-13T21:49:48.421Z,68.47
2023-04-13T21:50:58.017Z,68.77
2023-04-13T21:53:25.710Z,69.11
2023-04-13T21:55:49.251Z,69.56
2023-04-13T21:58:12.990Z,69.93
2023-04-13T22:00:39.713Z,70.86
2023-04-13T22:03:04.313Z,71.37
2023-04-13T22:05:30.122Z,72.25
2023-04-13T22:07:55.219Z,72.44
2023-04-13T22:10:20.726Z,71.66
2023-04-13T22:12:44.784Z,70.93
2023-04-13T22:13:54.120Z,70.67
2023-04-13T22:16:39.706Z,68.85
2023-04-13T22:19:03.859Z,69.45
2023-04-13T22:20:14.774Z,69.53
2023-04-13T22:21:24.784Z,69.80
2023-04-13T22:22:33.901Z,68.88
2023-04-13T22:24:57.538Z,69.59
2023-04-13T22:27:23.386Z,71.28
2023-04-13T22:29:48.707Z,72.37
2023-04-13T22:32:16.424Z,73.78
2023-04-13T22:34:44.114Z,73.83
2023-04-13T22:35:53.747Z,73.88
2023-04-13T22:38:19.624Z,73.55
2023-04-13T22:41:06.785Z,72.97
2023-04-13T22:43:32.308Z,73.08
2023-04-13T22:46:17.907Z,72.79
2023-04-13T22:48:41.709Z,72.30
2023-04-13T22:49:50.588Z,72.48
2023-04-13T22:51:00.790Z,71.39
2023-04-13T22:53:27.370Z,71.11
2023-04-13T22:55:51.067Z,70.83
2023-04-13T22:57:05.205Z,70.28
2023-04-13T22:58:14.035Z,70.54
2023-04-13T22:59:25.372Z,70.01
2023-04-13T23:01:50.413Z,69.84
2023-04-13T23:03:00.319Z,69.62
2023-04-13T23:05:24.258Z,69.80
2023-04-13T23:07:51.816Z,70.58
2023-04-13T23:09:01.711Z,70.62
2023-04-13T23:11:26.911Z,72.17
2023-04-13T23:13:56.690Z,72.67
2023-04-13T23:16:24.154Z,71.74
2023-04-13T23:18:48.904Z,71.67
2023-04-13T23:22:46.797Z,70.60
2023-04-13T23:23:55.991Z,70.42
2023-04-13T23:26:42.295Z,70.33
2023-04-13T23:29:07.189Z,69.54
2023-04-13T23:31:33.131Z,69.51
2023-04-13T23:33:58.517Z,69.78
2023-04-13T23:36:25.148Z,68.67
2023-04-13T23:38:49.253Z,69.16
2023-04-13T23:41:13.919Z,70.28
2023-04-13T23:42:23.768Z,69.58
2023-04-13T23:44:48.755Z,69.55
2023-04-13T23:47:16.952Z,69.74
2023-04-13T23:49:51.348Z,70.90
2023-04-13T23:52:15.422Z,70.76
2023-04-13T23:54:41.293Z,71.63
2023-04-13T23:57:05.908Z,71.02
2023-04-13T23:58:15.513Z,70.86
